Terminal Aerodrome Forecast
Issued by NWS Houston/Galveston, TX

Home | Current Version | Previous Version | Text Only | Print | Product List | Glossary On
Versions: 1 2 3 4 5 6 7 8 9 10 11 12 13 14 15 16 17 18 19 20 21 22 23 24 25 26 27 28 29 30 31 32 33 34 35
000
FTUS44 KHGX 261447 AAA
TAFCLL
TAF AMD
KCLL 261447Z 2615/2712 11009KT P6SM BKN040
     FM261600 15011KT P6SM BKN035
     FM262000 16010G20KT P6SM VCTS BKN030CB
     FM270200 16008KT P6SM VCSH BKN030
     FM270700 16006KT 5SM BR VCSH BKN020=

USA.gov is the U.S. government's official web portal to all federal, state and local government web resources and services.